createdAt,value
2018-10-01T00:00:45.226Z,98533.18
2018-10-01T00:03:15.564Z,98538.91
2018-10-01T00:05:46.028Z,98537.02
2018-10-01T00:08:16.724Z,98534.42
2018-10-01T00:10:47.222Z,98525.95
2018-10-01T00:13:18.511Z,98526.80
2018-10-01T00:15:49.015Z,98525.02
2018-10-01T00:18:20.254Z,98513.95
2018-10-01T00:20:55.786Z,98505.97
2018-10-01T00:23:26.125Z,98508.95
2018-10-01T00:25:56.704Z,98511.20
2018-10-01T00:28:27.090Z,98509.55
2018-10-01T00:30:57.556Z,98519.44
2018-10-01T00:33:27.965Z,98519.92
2018-10-01T00:35:58.425Z,98517.88
2018-10-01T00:38:28.957Z,98515.88
2018-10-01T00:40:59.597Z,98512.21
2018-10-01T00:43:30.211Z,98510.91
2018-10-01T00:46:00.682Z,98504.57
2018-10-01T00:48:31.130Z,98502.91
2018-10-01T00:51:01.593Z,98495.28
2018-10-01T00:53:32.170Z,98492.86
2018-10-01T00:56:02.571Z,98490.74
2018-10-01T00:58:33.079Z,98481.53
2018-10-01T01:01:03.520Z,98477.81
2018-10-01T01:03:33.985Z,98478.21
2018-10-01T01:06:04.754Z,98479.73
2018-10-01T01:08:35.106Z,98470.56
2018-10-01T01:11:06.620Z,98463.83
2018-10-01T01:13:37.198Z,98457.47
2018-10-01T01:16:07.597Z,98451.17
2018-10-01T01:18:38.127Z,98445.60
2018-10-01T01:21:08.800Z,98436.09
2018-10-01T01:23:39.221Z,98436.41
2018-10-01T01:26:09.715Z,98435.97
2018-10-01T01:28:40.144Z,98431.81
2018-10-01T01:31:11.257Z,98436.35
2018-10-01T01:33:41.769Z,98427.42
2018-10-01T01:36:12.099Z,98423.03
2018-10-01T01:38:43.016Z,98426.95
2018-10-01T01:41:13.416Z,98429.46
2018-10-01T01:43:43.899Z,98432.33
2018-10-01T01:46:14.431Z,98426.62
2018-10-01T01:48:44.902Z,98425.78
2018-10-01T01:51:15.386Z,98426.49
2018-10-01T01:53:45.758Z,98419.00
2018-10-01T01:56:16.165Z,98409.23
2018-10-01T01:58:46.753Z,98410.79
2018-10-01T02:01:17.184Z,98413.69
2018-10-01T02:03:47.625Z,98412.00
2018-10-01T02:06:18.126Z,98409.76
2018-10-01T02:08:48.572Z,98405.23
2018-10-01T02:11:19.073Z,98401.91
2018-10-01T02:13:49.491Z,98397.51
2018-10-01T02:16:20.033Z,98401.39
2018-10-01T02:18:50.516Z,98395.20
2018-10-01T02:21:20.951Z,98399.96
2018-10-01T02:23:51.200Z,98397.45
2018-10-01T02:26:21.626Z,98390.08
2018-10-01T02:28:52.201Z,98392.80
2018-10-01T02:31:22.738Z,98385.30
2018-10-01T02:33:54.427Z,98387.72
2018-10-01T02:36:24.949Z,98380.97
2018-10-01T02:38:55.680Z,98381.70
2018-10-01T02:41:26.213Z,98374.73
2018-10-01T02:43:57.055Z,98377.33
2018-10-01T02:46:27.629Z,98376.55
2018-10-01T02:48:58.182Z,98375.34
2018-10-01T02:51:28.873Z,98374.39
2018-10-01T02:54:04.334Z,98374.97
2018-10-01T02:56:34.781Z,98369.06
2018-10-01T02:59:05.238Z,98365.34
2018-10-01T03:01:35.609Z,98362.72
2018-10-01T03:04:06.851Z,98362.58
2018-10-01T03:06:37.212Z,98370.73
2018-10-01T03:09:13.508Z,98361.48
2018-10-01T03:11:43.977Z,98364.44
2018-10-01T03:14:14.490Z,98368.59
2018-10-01T03:16:44.942Z,98360.16
2018-10-01T03:19:15.576Z,98358.22
2018-10-01T03:21:46.116Z,98356.51
2018-10-01T03:24:16.798Z,98343.31
2018-10-01T03:26:47.205Z,98333.14
2018-10-01T03:29:17.572Z,98338.81
2018-10-01T03:31:48.054Z,98337.29
2018-10-01T03:34:19.415Z,98327.62
2018-10-01T03:36:49.906Z,98325.32
2018-10-01T03:39:20.272Z,98323.11
2018-10-01T03:41:50.669Z,98320.61
2018-10-01T03:44:21.151Z,98319.03
2018-10-01T03:46:51.758Z,98327.70
2018-10-01T03:49:22.778Z,98326.18
2018-10-01T03:51:53.224Z,98310.81
2018-10-01T03:54:23.712Z,98312.67
2018-10-01T03:56:54.183Z,98314.55
2018-10-01T03:59:24.655Z,98321.68
2018-10-01T04:01:55.374Z,98315.05
2018-10-01T04:04:26.006Z,98317.27
2018-10-01T04:06:56.539Z,98316.91
2018-10-01T04:09:28.044Z,98320.22
2018-10-01T04:11:58.572Z,98326.67
2018-10-01T04:14:29.211Z,98319.59
2018-10-01T04:17:00.037Z,98312.69
2018-10-01T04:19:30.430Z,98313.44
2018-10-01T04:22:01.024Z,98308.27
2018-10-01T04:24:31.496Z,98304.13
2018-10-01T04:27:01.865Z,98303.83
2018-10-01T04:29:32.290Z,98298.98
2018-10-01T04:32:02.910Z,98296.71
2018-10-01T04:34:33.455Z,98304.92
2018-10-01T04:37:03.925Z,98310.80
2018-10-01T04:39:34.484Z,98301.83
2018-10-01T04:42:05.583Z,98301.44
2018-10-01T04:44:36.116Z,98297.55
2018-10-01T04:47:06.687Z,98295.98
2018-10-01T04:49:37.081Z,98297.50
2018-10-01T04:52:07.458Z,98306.39
2018-10-01T04:54:37.947Z,98307.27
2018-10-01T04:57:08.723Z,98297.83
2018-10-01T04:59:39.174Z,98300.45
2018-10-01T05:02:10.214Z,98294.14
2018-10-01T05:04:40.735Z,98289.69
2018-10-01T05:07:11.287Z,98287.73
2018-10-01T05:09:41.604Z,98286.63
2018-10-01T05:12:12.466Z,98286.94
2018-10-01T05:14:43.047Z,98282.45
2018-10-01T05:17:13.595Z,98279.63
2018-10-01T05:19:44.039Z,98271.17
2018-10-01T05:22:14.700Z,98269.80
2018-10-01T05:24:45.170Z,98270.80
2018-10-01T05:27:15.632Z,98271.90
2018-10-01T05:29:46.051Z,98263.50
2018-10-01T05:32:16.663Z,98272.38
2018-10-01T05:34:47.179Z,98265.28
2018-10-01T05:37:17.553Z,98266.30
2018-10-01T05:39:48.037Z,98266.13
2018-10-01T05:42:18.490Z,98266.59
2018-10-01T05:44:49.009Z,98268.94
2018-10-01T05:47:19.514Z,98270.00
2018-10-01T05:49:50.122Z,98264.74
2018-10-01T05:52:20.852Z,98267.62
2018-10-01T05:54:51.228Z,98269.56
2018-10-01T05:57:21.700Z,98270.00
2018-10-01T05:59:52.227Z,98271.95
2018-10-01T06:02:56.797Z,98275.30
2018-10-01T06:05:27.224Z,98271.06
2018-10-01T06:07:57.750Z,98279.63
2018-10-01T06:10:28.282Z,98287.63
2018-10-01T06:12:58.734Z,98275.17
2018-10-01T06:15:29.337Z,98279.95
2018-10-01T06:17:59.866Z,98284.84
2018-10-01T06:20:30.348Z,98282.20
2018-10-01T06:23:01.026Z,98274.25
2018-10-01T06:25:32.037Z,98280.22
2018-10-01T06:28:03.367Z,98269.13
2018-10-01T06:30:33.896Z,98267.04
2018-10-01T06:33:04.650Z,98262.27
2018-10-01T06:35:35.611Z,98259.98
2018-10-01T06:38:06.442Z,98254.16
2018-10-01T06:40:36.881Z,98259.09
2018-10-01T06:43:07.630Z,98263.80
2018-10-01T06:45:37.977Z,98254.86
2018-10-01T06:48:08.737Z,98263.27
2018-10-01T06:50:39.396Z,98257.94
2018-10-01T06:53:11.023Z,98256.91
2018-10-01T06:55:41.619Z,98250.84
2018-10-01T06:58:13.792Z,98247.03
2018-10-01T07:00:44.293Z,98240.52
2018-10-01T07:03:15.717Z,98239.44
2018-10-01T07:05:47.003Z,98238.87
2018-10-01T07:08:17.547Z,98242.67
2018-10-01T07:10:48.157Z,98237.29
2018-10-01T07:13:18.551Z,98235.38
2018-10-01T07:15:49.007Z,98237.28
2018-10-01T07:18:19.473Z,98230.84
2018-10-01T07:20:50.430Z,98220.90
2018-10-01T07:23:21.008Z,98221.02
2018-10-01T07:25:51.415Z,98219.16
2018-10-01T07:28:22.103Z,98218.30
2018-10-01T07:30:54.366Z,98223.02
2018-10-01T07:33:25.108Z,98225.37
2018-10-01T07:35:55.663Z,98231.11
2018-10-01T07:38:26.203Z,98235.63
2018-10-01T07:40:57.401Z,98233.53
2018-10-01T07:43:28.225Z,98220.31
2018-10-01T07:45:58.947Z,98228.84
2018-10-01T07:48:29.734Z,98222.27
2018-10-01T07:51:00.521Z,98223.09
2018-10-01T07:53:31.229Z,98226.75
2018-10-01T07:56:02.471Z,98224.86
2018-10-01T07:58:33.654Z,98223.60
2018-10-01T08:01:04.532Z,98215.58
2018-10-01T08:03:35.233Z,98213.75
2018-10-01T08:06:05.961Z,98210.02
2018-10-01T08:08:36.613Z,98206.88
2018-10-01T08:11:07.440Z,98205.91
2018-10-01T08:13:38.449Z,98206.61
2018-10-01T08:16:09.284Z,98200.14
2018-10-01T08:18:40.082Z,98195.27
2018-10-01T08:21:10.699Z,98194.96
2018-10-01T08:23:41.549Z,98183.44
2018-10-01T08:26:11.940Z,98184.53
2018-10-01T08:28:43.648Z,98182.76
2018-10-01T08:31:14.317Z,98173.09
2018-10-01T08:33:44.831Z,98161.64
2018-10-01T08:36:16.060Z,98163.14
2018-10-01T08:38:46.913Z,98173.19
2018-10-01T08:41:17.384Z,98172.13
2018-10-01T08:43:47.939Z,98175.00
2018-10-01T08:46:19.077Z,98176.69
2018-10-01T08:48:54.400Z,98161.01
2018-10-01T08:51:32.339Z,98158.88
2018-10-01T08:54:07.663Z,98152.60
2018-10-01T08:56:38.634Z,98149.45
2018-10-01T08:59:09.443Z,98143.07
2018-10-01T09:01:40.238Z,98142.34
2018-10-01T09:04:10.879Z,98143.48
2018-10-01T09:06:41.494Z,98130.65
2018-10-01T09:09:12.887Z,98126.77
2018-10-01T09:11:43.512Z,98122.48
2018-10-01T09:14:14.132Z,98124.78
2018-10-01T09:16:44.724Z,98112.36
2018-10-01T09:19:15.151Z,98112.66
2018-10-01T09:21:45.726Z,98109.99
2018-10-01T09:24:17.020Z,98097.84
2018-10-01T09:26:47.746Z,98098.62
2018-10-01T09:29:19.444Z,98093.95
2018-10-01T09:31:53.000Z,98105.15
2018-10-01T09:34:27.854Z,98107.14
2018-10-01T09:36:58.690Z,98106.91
2018-10-01T09:39:29.225Z,98099.02
2018-10-01T09:42:01.107Z,98093.39
2018-10-01T09:44:31.785Z,98088.17
2018-10-01T09:47:02.359Z,98094.64
2018-10-01T09:49:33.216Z,98114.48
2018-10-01T09:52:03.979Z,98135.45
2018-10-01T09:54:34.759Z,98121.96
2018-10-01T09:57:06.846Z,98100.20
2018-10-01T09:59:37.831Z,98088.97
2018-10-01T10:02:09.179Z,98087.75
2018-10-01T10:04:40.127Z,98102.42
2018-10-01T10:07:10.997Z,98093.83
2018-10-01T10:09:41.634Z,98086.39
2018-10-01T10:12:12.347Z,98087.34
2018-10-01T10:14:42.855Z,98086.83
2018-10-01T10:17:13.775Z,98102.63
2018-10-01T10:19:44.764Z,98109.91
2018-10-01T10:22:16.437Z,98096.25
2018-10-01T10:24:47.114Z,98089.03
2018-10-01T10:27:17.900Z,98082.98
2018-10-01T10:29:48.571Z,98079.04
2018-10-01T10:32:19.545Z,98066.88
2018-10-01T10:34:50.679Z,98047.40
2018-10-01T10:37:21.168Z,98047.73
2018-10-01T10:39:51.654Z,98046.58
2018-10-01T10:42:22.827Z,98058.63
2018-10-01T10:44:53.457Z,98066.22
2018-10-01T10:47:25.492Z,98048.36
2018-10-01T10:49:56.574Z,98043.42
2018-10-01T10:52:27.414Z,98028.26
2018-10-01T10:54:58.198Z,98027.11
2018-10-01T10:57:29.014Z,98021.31
2018-10-01T10:59:59.685Z,98019.02
2018-10-01T11:02:31.097Z,98021.48
2018-10-01T11:05:01.729Z,98013.58
2018-10-01T11:07:33.341Z,98011.43
2018-10-01T11:10:03.775Z,98005.49
2018-10-01T11:12:34.882Z,97998.89
2018-10-01T11:15:05.743Z,97996.25
2018-10-01T11:17:36.235Z,98011.42
2018-10-01T11:20:07.374Z,98002.52
2018-10-01T11:22:38.037Z,97979.28
2018-10-01T11:25:08.803Z,97965.49
2018-10-01T11:27:39.597Z,97977.10
2018-10-01T11:30:10.421Z,97971.94
2018-10-01T11:32:41.249Z,97967.17
2018-10-01T11:35:11.968Z,97954.64
2018-10-01T11:37:42.472Z,97948.95
2018-10-01T11:40:13.272Z,97944.61
2018-10-01T11:42:44.022Z,97943.00
2018-10-01T11:45:14.846Z,97939.15
2018-10-01T11:47:45.963Z,97931.64
2018-10-01T11:50:16.610Z,97927.91
2018-10-01T11:52:47.231Z,97923.17
2018-10-01T11:55:17.939Z,97911.56
2018-10-01T11:57:49.064Z,97907.45
2018-10-01T12:00:20.990Z,97898.06
2018-10-01T12:02:51.625Z,97896.30
2018-10-01T12:05:22.315Z,97901.47
2018-10-01T12:07:52.947Z,97894.06
2018-10-01T12:10:23.598Z,97896.05
2018-10-01T12:12:54.454Z,97896.13
2018-10-01T12:15:25.168Z,97893.22
2018-10-01T12:17:55.730Z,97894.56
2018-10-01T12:20:26.268Z,97894.89
2018-10-01T12:22:56.746Z,97894.52
2018-10-01T12:25:27.281Z,97903.45
2018-10-01T12:27:58.040Z,97923.36
2018-10-01T12:30:29.062Z,97923.91
2018-10-01T12:33:00.864Z,97914.14
2018-10-01T12:35:31.414Z,97919.47
2018-10-01T12:38:02.060Z,97923.64
2018-10-01T12:40:33.160Z,97932.00
2018-10-01T12:43:07.248Z,97932.75
2018-10-01T12:45:38.601Z,97934.00
2018-10-01T12:48:10.273Z,97926.63
2018-10-01T12:50:43.263Z,97918.75
2018-10-01T12:53:14.054Z,97905.74
2018-10-01T12:55:44.789Z,97900.35
2018-10-01T12:58:15.812Z,97888.17
2018-10-01T13:00:47.534Z,97864.22
2018-10-01T13:03:21.274Z,97842.23
2018-10-01T13:05:53.148Z,97835.97
2018-10-01T13:08:24.949Z,97831.34
2018-10-01T13:10:56.038Z,97823.83
2018-10-01T13:13:26.887Z,97827.48
2018-10-01T13:15:58.146Z,97824.05
2018-10-01T13:18:28.827Z,97805.13
2018-10-01T13:21:00.283Z,97803.05
2018-10-01T13:23:31.170Z,97791.39
2018-10-01T13:26:02.771Z,97784.03
2018-10-01T13:28:33.718Z,97793.72
2018-10-01T13:31:04.559Z,97795.12
2018-10-01T13:33:35.306Z,97800.38
2018-10-01T13:36:06.777Z,97800.69
2018-10-01T13:38:38.392Z,97799.44
2018-10-01T13:41:09.566Z,97797.02
2018-10-01T13:43:40.607Z,97789.61
2018-10-01T13:46:11.510Z,97778.30
2018-10-01T13:48:42.361Z,97766.80
2018-10-01T13:51:13.739Z,97757.81
2018-10-01T13:53:44.398Z,97751.70
2018-10-01T13:56:15.517Z,97743.80
2018-10-01T13:58:46.143Z,97748.77
2018-10-01T14:01:16.650Z,97747.91
2018-10-01T14:03:47.149Z,97755.59
2018-10-01T14:06:17.975Z,97756.50
2018-10-01T14:08:48.487Z,97762.72
2018-10-01T14:11:19.168Z,97757.38
2018-10-01T14:13:49.827Z,97760.05
2018-10-01T14:16:20.507Z,97758.06
2018-10-01T14:18:52.006Z,97763.11
2018-10-01T14:21:22.626Z,97770.59
2018-10-01T14:23:53.518Z,97764.66
2018-10-01T14:26:25.102Z,97767.26
2018-10-01T14:28:55.736Z,97763.91
2018-10-01T14:31:26.688Z,97766.81
2018-10-01T14:33:57.418Z,97764.42
2018-10-01T14:36:28.077Z,97759.70
2018-10-01T14:38:58.649Z,97756.49
2018-10-01T14:41:29.268Z,97749.45
2018-10-01T14:43:59.889Z,97748.70
2018-10-01T14:46:30.504Z,97747.52
2018-10-01T14:49:00.955Z,97745.52
2018-10-01T14:51:31.433Z,97742.52
2018-10-01T14:54:02.077Z,97744.03
2018-10-01T14:56:32.697Z,97747.02
2018-10-01T14:59:03.781Z,97744.61
2018-10-01T15:01:34.916Z,97737.30
2018-10-01T15:04:05.628Z,97741.06
2018-10-01T15:06:36.266Z,97734.09
2018-10-01T15:09:11.438Z,97739.22
2018-10-01T15:11:42.307Z,97743.92
2018-10-01T15:14:13.556Z,97728.05
2018-10-01T15:16:45.041Z,97729.89
2018-10-01T15:19:17.471Z,97734.91
2018-10-01T15:21:48.131Z,97738.01
2018-10-01T15:24:18.988Z,97744.05
2018-10-01T15:26:49.651Z,97746.95
2018-10-01T15:29:20.484Z,97748.72
2018-10-01T15:31:51.403Z,97771.38
2018-10-01T15:34:21.965Z,97776.91
2018-10-01T15:36:52.579Z,97773.26
2018-10-01T15:39:23.243Z,97776.82
2018-10-01T15:41:54.221Z,97786.97
2018-10-01T15:44:24.866Z,97792.06
2018-10-01T15:46:55.595Z,97796.28
2018-10-01T15:49:26.237Z,97793.30
2018-10-01T15:51:57.182Z,97794.38
2018-10-01T15:54:28.151Z,97793.66
2018-10-01T15:57:01.752Z,97796.23
2018-10-01T15:59:32.833Z,97794.52
2018-10-01T16:02:06.304Z,97797.56
2018-10-01T16:04:37.373Z,97803.55
2018-10-01T16:07:09.626Z,97811.72
2018-10-01T16:09:41.890Z,97813.00
2018-10-01T16:12:12.798Z,97824.14
2018-10-01T16:14:43.955Z,97820.70
2018-10-01T16:17:14.795Z,97829.85
2018-10-01T16:19:45.849Z,97823.60
2018-10-01T16:22:16.241Z,97833.39
2018-10-01T16:24:46.689Z,97836.19
2018-10-01T16:27:17.314Z,97848.70
2018-10-01T16:29:47.956Z,97851.91
2018-10-01T16:32:18.700Z,97855.86
2018-10-01T16:34:49.349Z,97856.14
2018-10-01T16:37:20.119Z,97864.30
2018-10-01T16:39:51.026Z,97871.73
2018-10-01T16:42:22.610Z,97871.52
2018-10-01T16:44:53.463Z,97875.84
2018-10-01T16:47:24.146Z,97882.48
2018-10-01T16:49:56.965Z,97878.94
2018-10-01T16:52:28.662Z,97883.50
2018-10-01T16:54:59.292Z,97879.02
2018-10-01T16:57:30.195Z,97883.74
2018-10-01T17:00:00.904Z,97890.94
2018-10-01T17:02:31.746Z,97890.18
2018-10-01T17:05:02.765Z,97893.38
2018-10-01T17:07:33.497Z,97899.55
2018-10-01T17:10:04.475Z,97901.53
2018-10-01T17:12:35.262Z,97902.25
2018-10-01T17:15:06.240Z,97900.29
2018-10-01T17:17:37.356Z,97910.18
2018-10-01T17:20:09.026Z,97913.14
2018-10-01T17:22:40.368Z,97911.19
2018-10-01T17:25:12.456Z,97916.30
2018-10-01T17:27:44.921Z,97911.86
2018-10-01T17:30:16.565Z,97920.78
2018-10-01T17:32:47.344Z,97923.42
2018-10-01T17:35:18.400Z,97929.35
2018-10-01T17:37:49.774Z,97924.08
2018-10-01T17:40:20.610Z,97921.75
2018-10-01T17:42:51.230Z,97925.88
2018-10-01T17:45:24.004Z,97928.17
2018-10-01T17:47:59.889Z,97931.98
2018-10-01T17:50:31.173Z,97931.83
2018-10-01T17:53:02.406Z,97941.55
2018-10-01T17:55:35.437Z,97936.11
2018-10-01T17:58:06.740Z,97934.79
2018-10-01T18:00:40.246Z,97937.91
2018-10-01T18:03:11.351Z,97940.20
2018-10-01T18:05:42.537Z,97936.25
2018-10-01T18:08:13.928Z,97945.81
2018-10-01T18:10:45.531Z,97949.11
2018-10-01T18:13:17.012Z,97951.27
2018-10-01T18:15:48.030Z,97947.97
2018-10-01T18:18:19.103Z,97955.05
2018-10-01T18:20:50.283Z,97952.23
2018-10-01T18:23:21.460Z,97952.59
2018-10-01T18:25:52.217Z,97954.73
2018-10-01T18:28:23.053Z,97952.76
2018-10-01T18:30:57.825Z,97961.98
2018-10-01T18:33:28.439Z,97961.33
2018-10-01T18:36:03.234Z,97959.66
2018-10-01T18:38:35.070Z,97953.73
2018-10-01T18:41:05.866Z,97957.02
2018-10-01T18:43:36.884Z,97966.11
2018-10-01T18:46:07.618Z,97968.09
2018-10-01T18:48:38.479Z,97965.77
2018-10-01T18:51:10.034Z,97962.47
2018-10-01T18:53:41.458Z,97951.61
2018-10-01T18:56:13.449Z,97947.48
2018-10-01T18:58:44.388Z,97949.46
2018-10-01T19:01:16.617Z,97953.41
2018-10-01T19:03:52.177Z,97953.73
2018-10-01T19:06:23.532Z,97960.80
2018-10-01T19:08:54.478Z,97958.69
2018-10-01T19:11:25.471Z,97957.86
2018-10-01T19:13:56.427Z,97960.32
2018-10-01T19:16:27.792Z,97965.28
2018-10-01T19:18:58.897Z,97971.52
2018-10-01T19:21:30.313Z,97978.11
2018-10-01T19:24:02.169Z,97974.16
2018-10-01T19:26:36.601Z,97967.08
2018-10-01T19:29:07.399Z,97967.91
2018-10-01T19:31:41.176Z,97960.01
2018-10-01T19:34:12.257Z,97959.34
2018-10-01T19:36:44.172Z,97964.28
2018-10-01T19:39:15.107Z,97969.20
2018-10-01T19:41:53.298Z,97964.57
2018-10-01T19:44:25.244Z,97959.27
2018-10-01T19:47:00.104Z,97959.22
2018-10-01T19:49:32.802Z,97964.80
2018-10-01T19:52:05.160Z,97966.74
2018-10-01T19:54:38.322Z,97959.02
2018-10-01T19:57:11.411Z,97963.80
2018-10-01T19:59:46.883Z,97966.56
2018-10-01T20:02:19.897Z,97963.16
2018-10-01T20:04:54.731Z,97963.84
2018-10-01T20:07:28.106Z,97970.73
2018-10-01T20:09:59.584Z,97968.48
2018-10-01T20:12:32.166Z,97966.03
2018-10-01T20:15:05.763Z,97965.16
2018-10-01T20:17:39.308Z,97967.30
2018-10-01T20:20:10.497Z,97970.72
2018-10-01T20:22:46.461Z,97967.91
2018-10-01T20:25:19.692Z,97972.02
2018-10-01T20:27:54.595Z,97973.51
2018-10-01T20:30:28.795Z,97976.80
2018-10-01T20:33:00.636Z,97972.83
2018-10-01T20:35:36.129Z,97985.98
2018-10-01T20:38:12.524Z,97990.05
2018-10-01T20:40:48.642Z,97994.52
2018-10-01T20:43:25.942Z,97993.32
2018-10-01T20:46:04.506Z,97995.45
2018-10-01T20:48:39.274Z,97993.16
2018-10-01T20:51:10.001Z,97995.78
2018-10-01T20:53:41.127Z,97996.91
2018-10-01T20:56:12.659Z,98005.11
2018-10-01T20:58:45.392Z,98003.76
2018-10-01T21:01:19.356Z,98000.73
2018-10-01T21:03:52.373Z,97999.73
2018-10-01T21:06:25.633Z,98001.48
2018-10-01T21:08:58.936Z,98004.89
2018-10-01T21:11:31.716Z,97995.47
2018-10-01T21:14:07.071Z,97992.97
2018-10-01T21:16:38.396Z,97986.72
2018-10-01T21:19:11.752Z,97989.34
2018-10-01T21:21:44.136Z,97985.48
2018-10-01T21:24:17.125Z,97995.84
2018-10-01T21:26:51.782Z,97994.08
2018-10-01T21:29:22.961Z,97994.44
2018-10-01T21:31:54.357Z,97992.90
2018-10-01T21:34:29.093Z,97984.08
2018-10-01T21:37:00.993Z,97983.53
2018-10-01T21:39:55.842Z,97982.63
2018-10-01T21:42:27.313Z,97994.24
2018-10-01T21:45:00.312Z,97987.91
2018-10-01T21:47:34.031Z,97991.62
2018-10-01T21:50:06.153Z,97994.84
2018-10-01T21:52:38.354Z,97997.11
2018-10-01T21:55:10.670Z,97988.55
2018-10-01T21:57:46.148Z,97985.84
2018-10-01T22:00:17.331Z,97990.73
2018-10-01T22:02:49.338Z,97986.28
2018-10-01T22:05:25.007Z,97990.55
2018-10-01T22:07:57.860Z,97989.66
2018-10-01T22:10:28.921Z,97996.91
2018-10-01T22:13:00.586Z,98001.02
2018-10-01T22:15:36.259Z,98000.27
2018-10-01T22:18:06.774Z,97994.07
2018-10-01T22:20:37.749Z,97996.89
2018-10-01T22:23:08.962Z,97994.01
2018-10-01T22:25:39.693Z,97993.33
2018-10-01T22:28:11.147Z,97989.67
2018-10-01T22:30:42.838Z,97999.98
2018-10-01T22:33:13.745Z,97996.78
2018-10-01T22:35:44.350Z,97997.53
2018-10-01T22:38:15.025Z,98004.09
2018-10-01T22:40:46.146Z,98004.05
2018-10-01T22:43:16.728Z,98006.14
2018-10-01T22:45:47.365Z,98014.63
2018-10-01T22:48:17.877Z,98017.00
2018-10-01T22:50:48.451Z,98016.61
2018-10-01T22:53:18.935Z,98020.81
2018-10-01T22:55:49.506Z,98022.48
2018-10-01T22:58:20.101Z,98017.87
2018-10-01T23:00:50.675Z,98017.45
2018-10-01T23:03:21.349Z,98008.06
2018-10-01T23:05:51.815Z,98000.56
2018-10-01T23:08:22.193Z,98000.17
2018-10-01T23:10:52.772Z,98012.92
2018-10-01T23:13:23.282Z,98001.55
2018-10-01T23:15:53.856Z,98010.55
2018-10-01T23:18:24.304Z,98014.73
2018-10-01T23:20:54.882Z,98022.28
2018-10-01T23:23:25.444Z,98025.42
2018-10-01T23:25:55.931Z,98020.74
2018-10-01T23:28:26.449Z,98023.52
2018-10-01T23:30:57.016Z,98035.16
2018-10-01T23:33:27.410Z,98034.34
2018-10-01T23:35:58.028Z,98039.44
2018-10-01T23:38:28.468Z,98038.33
2018-10-01T23:40:59.046Z,98046.80
2018-10-01T23:43:30.575Z,98049.42
2018-10-01T23:46:01.013Z,98049.52
2018-10-01T23:48:31.583Z,98052.33
2018-10-01T23:51:02.657Z,98049.16
2018-10-01T23:53:33.226Z,98051.37
2018-10-01T23:56:04.351Z,98057.72
2018-10-01T23:58:35.006Z,98061.16
